首页
METAR-TAF:

METAR-TAF

机场 :

豪尔赫·查韦斯国际机场

利馬, 秘鲁

纬度: 12-00S, 经度: 077-07W, 海拔: 12米

当前天气观测

该预报发布于44分钟前的20:00 UTC
风速7节,风向西,在南转南东西北之间变化
温度 26°C
湿度 70%
气压 1010 hPa
能见度10公里或以上
1500米以下无云,无积雨云

METAR: SPJC 072000Z 26007KT 150V320 CAVOK 26/20 Q1010 NOSIG RMK BIRD HAZARD RWY 15 PP000

时间: 15:44 (20:44 UTC)

预报

该预报发布于3小时和44分钟前的17:00 UTC
预报有效从07日的 18点(UTC)到 08日的 18点(UTC)
风速8节,风向西
能见度10公里或以上
1500米以下无云,无积雨云
成为
从 07日的 20点(UTC)到 09日的 22点(UTC)
风速10节,风向
从 08日的 0300点(UTC)
风速5节,风向
能见度10公里或以上
散云层高于1000英尺
散云层高于14000英尺
短暂存在
从 08日的 11点(UTC)到 08日的 13点(UTC)
能見度: 4500
多云层高于1000英尺
轻雾
从 08日的 1400点(UTC)
风速6节,风向西
能见度10公里或以上
1500米以下无云,无积雨云

TAF: SPJC 071700Z 0718/0818 27008KT CAVOK TX26/0719Z TN20/0811Z BECMG 0720/0922 17010KT FM080300 17005KT 9999 SCT010 SCT140 TEMPO 0811/0813 4500 BR BKN010 FM081400 28006KT CAVOK

超过4000个机场的气象观测和天气预报(METAR&TAF报告)。

可查询的气象台以黄色和红色小点在地图上表示。

将鼠标移到小点上方,可查看气象台名称。

然后点击查看天气观测和预报。

如需切换地图:点击带黑十字的绿色按钮放大地图;点击带横线的绿色按钮缩小地图;或者点击绿色箭头查看邻近地区的地图。


METAR-TAF: